ETARLSZB

Guest
Details From ETAR - Ramstein Ab
To LSZB - Bern-belp
Flight Number -
Tags Generated
Created
Modified
Stats Distance 152 nm / 281 km
Max Altitude 0 ft / 0 m
Waypoints 2
Social Downloads 0
Likes 0
Share VATSIM

Download

Looking for another format? Having issues loading an existing format? Contact us
Advertisement - Login to hide

Notes

Generated

Route

ETAR LSZB

ID Type Via Altitude Latitude Longitude Leg Dist Tot Dist Heading (true) Name
O ETAR APT - 0 ft / 0 m 49.43610˚ 7.58092˚ - 0 nm - -
O LSZB APT - 0 ft / 0 m 46.91416˚ 7.49449˚ 151 nm 151 nm 181° / 181° -

Altitude Profile

Advertisement - Login to hide

ETAR

Details ICAO ETAR (RMS)
Name Ramstein AB
Region Germany - Military
Timezone Europe/Berlin (UTC+2.0)
Stats Elevation 781 ft / 238 m (AMSL)
Location 49.435698° 7.600498°
Runways 2
Magnetic Variation 2.142° E

METAR

ETAR 220656Z AUTO 00000KT 9999 FEW100 15/15 A2990 RMK AO2 SLP125 T01530153 $

Decode

TAF

TAF AMD ETAR 220434Z 2203/2308 VRB06KT 9999 BKN090 QNH2984INS BECMG 2209/2210 08012G18KT 9000 -SHRA VCTS BKN040CB QNH2985INS TEMPO 2210/2213 VRB20G30KT 4800 TSRAGS BKN030CB BECMG 2216/2217 VRB06KT 9999 NSW BKN030 QNH2988INS BECMG 2305/2306 VRB06KT 9000 -SHRA BKN040 QNH2988INS TX23/2214Z TN08/2204Z

Decode

Departure Runways

ID Width Length Bearing (true) Bearing (mag) Surface Threshold Offset Overrun Length
08 148 ft / 45 m 10,469 ft / 3,191 m 82.28° 80.14° Asphalt 350 ft / 107 m 0 ft / 0 m
09 148 ft / 45 m 9,219 ft / 2,810 m 86.30° 84.16° Asphalt 350 ft / 107 m 0 ft / 0 m
26 148 ft / 45 m 10,469 ft / 3,191 m 262.31° 260.17° Asphalt 350 ft / 107 m 0 ft / 0 m
27 148 ft / 45 m 9,219 ft / 2,810 m 266.33° 264.19° Asphalt 350 ft / 107 m 0 ft / 0 m

LSZB

Details ICAO LSZB (BRN)
Name Bern-Belp
Region Switzerland
Timezone Europe/Zurich (UTC+2.0)
Stats Elevation 1,672 ft / 510 m (AMSL)
Location 46.912547° 7.497672°
Runways 3
Magnetic Variation 2.135° E

METAR

LSZB 220720Z 15003KT 110V190 CAVOK 18/12 Q1013 NOSIG

Decode

TAF

Not found

Destination Runways

ID Width Length Bearing (true) Bearing (mag) Surface Threshold Offset Overrun Length
14 98 ft / 30 m 5,677 ft / 1,730 m 140.23° 138.10° Asphalt 656 ft / 200 m 0 ft / 0 m
14L 98 ft / 30 m 2,125 ft / 648 m 140.01° 137.88° Grass 0 ft / 0 m 0 ft / 0 m
14R 98 ft / 30 m 2,123 ft / 647 m 140.14° 138.01° Grass 0 ft / 0 m 0 ft / 0 m
32 98 ft / 30 m 5,677 ft / 1,730 m 320.24° 318.11° Asphalt 0 ft / 0 m 0 ft / 0 m
32L 98 ft / 30 m 2,123 ft / 647 m 320.14° 318.01° Grass 0 ft / 0 m 0 ft / 0 m
32R 98 ft / 30 m 2,125 ft / 648 m 320.01° 317.88° Grass 0 ft / 0 m 0 ft / 0 m

Approach Navaids

Runway Type Ident Frequency Range Bearing (true) Bearing (mag) Slope Elevation
14 Localiser IBE 110.10 MHz 18 nm / 33 km 140.24° 138.10° - 1,702 ft / 519 m (AMSL)
14 Glidescope IBE 110.10 MHz 10 nm / 19 km 140.24° 138.10° 4.00° 1,664 ft / 507 m (AMSL)
14 DME IBE 110.10 MHz 18 nm / 33 km - - - 1,684 ft / 513 m (AMSL)